Time;durP1;ratioP1;P1;durP2;ratioP2;P2;SDS_P1;SDS_P2;PMS_P1;PMS_P2;Temp;Humidity;BMP_temperature;BMP_pressure;BME280_temperature;BME280_humidity;BME280_pressure;Samples;Min_cycle;Max_cycle;Signal;HPM_P1;HPM_P2
2023/05/03 00:00:43;;;;;;;5.95;4.38;;;18.60;59.80;;;;;;4955833;28;20193;-67
2023/05/03 00:03:09;;;;;;;4.68;4.28;;;18.60;59.80;;;;;;4955636;28;20255;-68
2023/05/03 00:05:36;;;;;;;4.43;4.03;;;18.60;59.70;;;;;;4955927;28;20218;-67
2023/05/03 00:08:02;;;;;;;4.13;3.75;;;18.70;59.90;;;;;;4955800;28;20194;-67
2023/05/03 00:10:28;;;;;;;4.03;3.72;;;18.60;59.80;;;;;;4972076;28;20182;-67
2023/05/03 00:12:54;;;;;;;4.43;4.07;;;18.60;59.80;;;;;;4956035;28;20193;-67
2023/05/03 00:15:20;;;;;;;3.80;3.50;;;18.60;59.80;;;;;;4943404;28;20209;-67
2023/05/03 00:17:45;;;;;;;4.45;4.05;;;18.60;59.80;;;;;;4972526;28;20209;-67
2023/05/03 00:20:11;;;;;;;4.03;3.72;;;18.60;59.80;;;;;;4958148;28;20190;-68
2023/05/03 00:22:37;;;;;;;3.65;3.35;;;18.60;59.70;;;;;;4959715;28;20673;-68
2023/05/03 00:25:03;;;;;;;3.70;3.40;;;18.60;59.70;;;;;;4959063;28;20279;-68
2023/05/03 00:27:29;;;;;;;4.45;4.05;;;18.60;59.90;;;;;;4976528;28;20240;-68
2023/05/03 00:29:55;;;;;;;4.20;3.90;;;18.60;59.80;;;;;;4958738;28;20732;-67
2023/05/03 00:32:24;;;;;;;4.47;4.07;;;18.60;59.80;;;;;;4958787;28;20188;-67
2023/05/03 00:34:57;;;;;;;4.10;3.80;;;18.60;59.60;;;;;;4958896;28;20217;-68
2023/05/03 00:37:24;;;;;;;4.15;3.85;;;18.60;59.60;;;;;;4959482;28;20189;-68
2023/05/03 00:39:50;;;;;;;4.28;3.88;;;18.60;59.60;;;;;;4959492;28;20194;-67
2023/05/03 00:42:15;;;;;;;4.10;3.70;;;18.60;59.60;;;;;;4959074;28;20220;-67
2023/05/03 00:44:41;;;;;;;4.30;3.90;;;18.60;59.50;;;;;;4958873;28;20521;-67
2023/05/03 00:47:08;;;;;;;4.60;4.20;;;18.60;59.50;;;;;;4942853;28;20660;-67
2023/05/03 00:49:34;;;;;;;4.43;4.10;;;18.60;59.50;;;;;;4942813;28;20673;-67
2023/05/03 00:52:01;;;;;;;4.53;4.13;;;18.60;59.50;;;;;;4944731;28;20312;-67
2023/05/03 00:54:29;;;;;;;4.65;4.22;;;18.60;59.50;;;;;;4958350;28;20267;-67
2023/05/03 00:56:56;;;;;;;4.53;4.13;;;18.60;59.50;;;;;;4976178;28;20268;-67
2023/05/03 00:59:22;;;;;;;4.38;3.97;;;18.60;59.50;;;;;;4958787;28;20232;-68
2023/05/03 01:01:50;;;;;;;4.20;3.83;;;18.60;59.50;;;;;;4959063;28;20208;-67
2023/05/03 01:04:18;;;;;;;4.28;3.88;;;18.60;59.50;;;;;;4974368;28;20225;-66
2023/05/03 01:07:16;;;;;;;4.60;4.20;;;18.60;59.50;;;;;;4975994;28;20202;-67
2023/05/03 01:10:18;;;;;;;4.15;3.72;;;18.60;59.50;;;;;;4943006;28;20202;-67
2023/05/03 01:13:09;;;;;;;4.60;4.20;;;18.60;59.50;;;;;;4942814;28;20189;-67
2023/05/03 01:15:56;;;;;;;4.30;3.90;;;18.60;59.50;;;;;;4951931;28;20237;-67
2023/05/03 01:18:32;;;;;;;4.45;4.05;;;18.60;59.50;;;;;;4990706;28;20186;-67
2023/05/03 01:21:01;;;;;;;4.40;4.00;;;18.60;59.50;;;;;;4942464;28;20193;-67
2023/05/03 01:23:41;;;;;;;4.32;3.92;;;18.60;59.50;;;;;;4966218;28;20190;-67
2023/05/03 01:26:21;;;;;;;4.32;4.03;;;18.60;59.50;;;;;;4958058;28;20213;-67
2023/05/03 01:28:47;;;;;;;4.47;4.07;;;18.60;59.50;;;;;;4974514;28;20189;-67
2023/05/03 01:31:28;;;;;;;5.43;4.25;;;18.60;59.50;;;;;;4975483;28;20178;-67
2023/05/03 01:34:18;;;;;;;4.35;3.95;;;18.60;59.50;;;;;;4958010;28;20327;-67
2023/05/03 01:36:47;;;;;;;3.83;3.53;;;18.60;59.50;;;;;;4958536;28;20193;-67
2023/05/03 01:39:21;;;;;;;4.43;4.03;;;18.60;59.50;;;;;;4957905;28;20193;-68
2023/05/03 01:41:52;;;;;;;4.07;3.75;;;18.60;59.50;;;;;;4958215;28;20198;-67
2023/05/03 01:44:21;;;;;;;4.50;4.10;;;18.60;59.50;;;;;;4957493;28;20244;-66
2023/05/03 01:46:48;;;;;;;4.13;3.83;;;18.60;59.50;;;;;;4958221;28;20277;-67
2023/05/03 01:49:14;;;;;;;4.38;3.97;;;18.60;59.50;;;;;;4957711;28;20190;-68
2023/05/03 01:51:40;;;;;;;4.40;4.00;;;18.60;59.50;;;;;;4941881;28;20301;-67
2023/05/03 01:54:06;;;;;;;4.00;3.70;;;18.60;59.50;;;;;;4957402;28;20669;-67
2023/05/03 01:56:35;;;;;;;4.20;3.80;;;18.60;59.50;;;;;;4957613;28;20272;-67
2023/05/03 01:59:02;;;;;;;3.85;3.55;;;18.60;59.50;;;;;;4957666;28;20189;-67
2023/05/03 02:01:28;;;;;;;3.95;3.65;;;18.60;59.50;;;;;;4957759;28;20182;-67
2023/05/03 02:03:54;;;;;;;4.57;4.18;;;18.60;59.50;;;;;;4941451;28;20218;-67
2023/05/03 02:06:20;;;;;;;4.05;3.75;;;18.60;59.50;;;;;;4989677;28;20221;-67
2023/05/03 02:08:45;;;;;;;3.60;3.30;;;18.50;59.30;;;;;;4941555;28;20193;-68
2023/05/03 02:11:11;;;;;;;3.83;3.53;;;18.50;59.20;;;;;;4973181;28;20213;-67
2023/05/03 02:13:38;;;;;;;4.03;3.72;;;18.60;59.30;;;;;;4957507;28;20181;-67
2023/05/03 02:16:04;;;;;;;4.43;4.03;;;18.50;59.20;;;;;;4957417;28;20189;-68
2023/05/03 02:18:30;;;;;;;3.75;3.45;;;18.50;59.20;;;;;;4946170;29;20199;-67
2023/05/03 02:20:56;;;;;;;3.90;3.60;;;18.50;59.20;;;;;;4963446;28;20248;-68
2023/05/03 02:23:23;;;;;;;4.22;3.92;;;18.50;59.20;;;;;;4972984;28;20189;-67
2023/05/03 02:25:50;;;;;;;3.67;3.38;;;18.50;59.20;;;;;;4940946;28;20250;-68
2023/05/03 02:28:15;;;;;;;4.28;3.88;;;18.50;59.20;;;;;;4956874;28;20205;-67
2023/05/03 02:30:42;;;;;;;3.75;3.45;;;18.60;59.20;;;;;;4974505;28;20197;-67
2023/05/03 02:33:07;;;;;;;4.38;3.97;;;18.50;59.20;;;;;;4973794;28;20192;-68
2023/05/03 02:35:35;;;;;;;3.65;3.35;;;18.50;59.20;;;;;;4973150;28;20212;-67
2023/05/03 02:38:00;;;;;;;3.90;3.60;;;18.50;59.20;;;;;;4956968;28;20186;-67
2023/05/03 02:40:26;;;;;;;3.80;3.50;;;18.60;59.20;;;;;;4941011;28;20193;-67
2023/05/03 02:42:54;;;;;;;3.30;3.10;;;18.50;59.10;;;;;;4956932;28;20198;-67
2023/05/03 02:45:25;;;;;;;4.07;3.67;;;18.60;59.20;;;;;;4956390;28;20275;-67
2023/05/03 02:47:51;;;;;;;4.13;3.72;;;18.50;59.10;;;;;;4956632;28;20194;-67
2023/05/03 02:50:17;;;;;;;3.50;3.28;;;18.50;59.10;;;;;;4957022;28;20190;-68
2023/05/03 02:52:43;;;;;;;3.28;2.97;;;18.50;59.00;;;;;;4955495;28;20196;-67
2023/05/03 02:55:09;;;;;;;3.85;3.42;;;18.60;59.10;;;;;;4973468;28;20221;-67
2023/05/03 02:57:36;;;;;;;3.83;3.53;;;18.50;59.00;;;;;;4941112;28;20196;-67
2023/05/03 03:00:05;;;;;;;4.22;3.83;;;18.50;59.00;;;;;;4956630;28;20204;-67
2023/05/03 03:02:30;;;;;;;3.53;3.22;;;18.50;59.00;;;;;;4956537;28;20189;-67
2023/05/03 03:04:56;;;;;;;4.03;3.60;;;18.60;59.00;;;;;;4956203;28;20224;-68
2023/05/03 03:07:23;;;;;;;3.80;3.50;;;18.50;58.80;;;;;;4956504;28;20192;-67
2023/05/03 03:09:53;;;;;;;4.03;3.70;;;18.50;58.80;;;;;;4941022;28;20185;-67
2023/05/03 03:12:20;;;;;;;3.55;3.25;;;18.50;58.90;;;;;;4956473;28;20277;-67
2023/05/03 03:14:46;;;;;;;3.65;3.35;;;18.50;59.00;;;;;;4956375;28;20268;-67
2023/05/03 03:17:13;;;;;;;3.95;3.65;;;18.50;58.90;;;;;;4956721;28;20197;-67
2023/05/03 03:19:39;;;;;;;3.88;3.58;;;18.50;58.90;;;;;;4956393;28;20185;-67
2023/05/03 03:22:05;;;;;;;3.67;3.38;;;18.50;58.90;;;;;;4956362;28;20193;-67
2023/05/03 03:24:31;;;;;;;3.70;3.40;;;18.50;58.90;;;;;;4955803;28;20213;-67
2023/05/03 03:26:57;;;;;;;3.53;3.33;;;18.50;58.90;;;;;;4972327;28;20199;-66
2023/05/03 03:29:24;;;;;;;3.90;3.60;;;18.50;58.90;;;;;;4956125;28;20277;-68
2023/05/03 03:31:50;;;;;;;3.63;3.33;;;18.50;58.90;;;;;;4956141;28;20205;-67
2023/05/03 03:34:17;;;;;;;3.40;3.10;;;18.50;58.90;;;;;;4956041;28;20205;-66
2023/05/03 03:36:43;;;;;;;3.42;3.22;;;18.50;58.80;;;;;;4940351;28;20565;-67
2023/05/03 03:39:09;;;;;;;3.47;3.25;;;18.50;58.80;;;;;;4956068;28;20224;-67
2023/05/03 03:41:36;;;;;;;3.47;3.17;;;18.50;58.80;;;;;;4972347;28;20193;-68
2023/05/03 03:44:02;;;;;;;3.58;3.30;;;18.60;58.80;;;;;;4955624;28;20209;-67
2023/05/03 03:46:28;;;;;;;3.63;3.33;;;18.50;58.90;;;;;;4955776;28;20228;-67
2023/05/03 03:48:56;;;;;;;3.80;3.50;;;18.50;58.80;;;;;;4955883;28;20217;-67
2023/05/03 03:51:25;;;;;;;3.17;2.97;;;18.50;58.80;;;;;;4940221;28;20221;-68
2023/05/03 03:53:52;;;;;;;3.17;2.97;;;18.50;58.80;;;;;;4955566;28;20217;-68
2023/05/03 03:56:20;;;;;;;4.03;3.63;;;18.50;58.80;;;;;;4956159;28;20196;-67
2023/05/03 03:58:49;;;;;;;3.47;3.17;;;18.50;58.70;;;;;;4956079;28;20190;-67
2023/05/03 04:01:15;;;;;;;3.50;3.20;;;18.50;58.80;;;;;;4971648;28;20280;-67
2023/05/03 04:03:48;;;;;;;3.22;3.03;;;18.50;58.80;;;;;;4963771;28;20213;-67
2023/05/03 04:06:14;;;;;;;3.60;3.30;;;18.50;58.80;;;;;;4939665;28;20233;-67
2023/05/03 04:08:40;;;;;;;3.25;3.00;;;18.50;58.80;;;;;;4955813;28;20213;-67
2023/05/03 04:11:13;;;;;;;3.67;3.38;;;18.50;58.80;;;;;;4955856;28;20818;-67
2023/05/03 04:13:46;;;;;;;3.53;3.30;;;18.50;58.70;;;;;;4955995;28;20288;-67
2023/05/03 04:16:12;;;;;;;3.45;3.15;;;18.50;58.70;;;;;;4955444;28;20284;-68
2023/05/03 04:18:38;;;;;;;3.58;3.28;;;18.50;58.70;;;;;;4964406;28;20185;-67
2023/05/03 04:21:06;;;;;;;3.15;2.92;;;18.50;58.80;;;;;;4956183;28;20201;-67
2023/05/03 04:23:32;;;;;;;3.70;3.40;;;18.50;58.70;;;;;;4955714;28;20219;-68
2023/05/03 04:25:58;;;;;;;3.33;3.13;;;18.50;58.70;;;;;;4955726;28;20220;-67
2023/05/03 04:28:26;;;;;;;3.60;3.30;;;18.50;58.70;;;;;;4939847;28;20213;-67
2023/05/03 04:30:52;;;;;;;3.10;2.90;;;18.50;58.70;;;;;;4955673;28;20186;-67
2023/05/03 04:33:23;;;;;;;3.10;2.85;;;18.50;58.70;;;;;;4955504;28;20185;-67
2023/05/03 04:35:51;;;;;;;3.70;3.40;;;18.50;58.70;;;;;;4955839;28;20189;-67
2023/05/03 04:38:18;;;;;;;3.03;2.83;;;18.50;58.80;;;;;;4971548;28;20243;-67
2023/05/03 04:40:45;;;;;;;3.05;2.85;;;18.50;58.80;;;;;;4955492;28;20193;-68
2023/05/03 04:43:11;;;;;;;3.35;3.13;;;18.50;58.80;;;;;;4955947;28;20225;-68
2023/05/03 04:45:41;;;;;;;3.05;2.80;;;18.50;58.70;;;;;;4954815;28;20281;-67
2023/05/03 04:48:11;;;;;;;3.20;2.88;;;18.60;58.80;;;;;;4968533;28;20221;-67
2023/05/03 04:50:37;;;;;;;3.60;3.30;;;18.50;58.70;;;;;;4955309;28;20198;-67
2023/05/03 04:53:05;;;;;;;2.88;2.67;;;18.50;58.70;;;;;;4968118;28;20187;-66
2023/05/03 04:55:34;;;;;;;3.22;3.00;;;18.60;58.80;;;;;;4956108;28;20313;-67
2023/05/03 04:58:02;;;;;;;3.58;3.28;;;18.60;58.80;;;;;;4991150;28;20579;-67
2023/05/03 05:00:29;;;;;;;2.78;2.58;;;18.60;58.80;;;;;;4958938;28;20197;-67
2023/05/03 05:03:01;;;;;;;2.97;2.78;;;18.60;58.80;;;;;;4974965;28;20193;-67
2023/05/03 05:05:29;;;;;;;2.78;2.58;;;18.60;58.80;;;;;;4958642;28;20225;-67
2023/05/03 05:07:57;;;;;;;2.90;2.70;;;18.60;58.80;;;;;;4958730;28;20193;-68
2023/05/03 05:10:23;;;;;;;3.50;3.20;;;18.60;58.80;;;;;;4958724;28;20208;-67
2023/05/03 05:12:50;;;;;;;2.88;2.67;;;18.60;58.80;;;;;;4958761;28;20227;-68
2023/05/03 05:15:16;;;;;;;2.92;2.72;;;18.60;58.80;;;;;;4974455;28;20229;-68
2023/05/03 05:17:43;;;;;;;3.33;3.03;;;18.60;58.80;;;;;;4958399;28;20288;-67
2023/05/03 05:20:13;;;;;;;3.20;3.00;;;18.60;58.80;;;;;;4944213;28;20193;-67
2023/05/03 05:22:44;;;;;;;2.95;2.75;;;18.60;58.80;;;;;;4950883;28;20208;-66
2023/05/03 05:25:10;;;;;;;2.75;2.55;;;18.60;58.80;;;;;;4957997;28;20217;-68
2023/05/03 05:27:38;;;;;;;3.50;3.20;;;18.60;58.80;;;;;;4958458;28;20236;-68
2023/05/03 05:30:05;;;;;;;2.60;2.45;;;18.60;58.80;;;;;;4942241;28;20193;-67
2023/05/03 05:32:33;;;;;;;2.95;2.75;;;18.60;58.80;;;;;;4958073;28;20673;-67
2023/05/03 05:34:59;;;;;;;3.30;3.10;;;18.60;58.80;;;;;;4957934;28;20213;-67
2023/05/03 05:37:26;;;;;;;2.72;2.53;;;18.60;58.80;;;;;;4957823;28;20198;-67
2023/05/03 05:39:55;;;;;;;2.92;2.67;;;18.60;58.80;;;;;;4960992;28;20265;-68
2023/05/03 05:42:25;;;;;;;3.00;2.78;;;18.70;58.90;;;;;;4958234;28;20198;-68
2023/05/03 05:44:51;;;;;;;2.70;2.50;;;18.70;58.90;;;;;;4973996;28;20213;-67
2023/05/03 05:47:18;;;;;;;3.08;2.78;;;18.70;58.90;;;;;;4958074;28;20245;-67
2023/05/03 05:49:45;;;;;;;3.10;2.90;;;18.60;58.80;;;;;;4958037;28;20188;-67
2023/05/03 05:52:11;;;;;;;2.70;2.50;;;18.70;58.90;;;;;;4957488;28;20658;-67
2023/05/03 05:54:38;;;;;;;2.80;2.60;;;18.70;58.90;;;;;;4957435;28;20252;-67
2023/05/03 05:57:04;;;;;;;2.90;2.70;;;18.70;58.90;;;;;;4967761;28;20210;-68
2023/05/03 05:59:30;;;;;;;2.92;2.65;;;18.70;58.90;;;;;;4971921;28;20193;-68
2023/05/03 06:01:58;;;;;;;2.70;2.50;;;18.70;58.90;;;;;;4942311;28;20213;-67
2023/05/03 06:04:26;;;;;;;2.90;2.70;;;18.70;58.90;;;;;;4941680;28;20209;-67
2023/05/03 06:06:52;;;;;;;2.60;2.40;;;18.70;58.90;;;;;;4940531;28;20200;-68
2023/05/03 06:09:17;;;;;;;2.92;2.63;;;18.70;58.90;;;;;;4965716;28;20186;-67
2023/05/03 06:11:43;;;;;;;3.05;2.47;;;18.70;58.90;;;;;;4957696;28;20524;-67
2023/05/03 06:14:09;;;;;;;3.40;3.08;;;18.70;58.90;;;;;;4957145;28;20673;-67
2023/05/03 06:16:37;;;;;;;3.60;3.30;;;18.70;59.00;;;;;;4957301;28;20201;-68
2023/05/03 06:19:04;;;;;;;3.40;3.10;;;18.70;59.00;;;;;;4957298;28;20192;-67
2023/05/03 06:21:31;;;;;;;3.53;2.88;;;18.70;59.00;;;;;;4941351;28;20191;-66
2023/05/03 06:23:57;;;;;;;3.30;3.10;;;18.70;59.00;;;;;;4941475;28;20264;-68
2023/05/03 06:26:26;;;;;;;3.22;3.03;;;18.70;59.00;;;;;;4957010;28;20640;-67
2023/05/03 06:28:52;;;;;;;2.95;2.65;;;18.70;58.90;;;;;;4974409;28;20186;-67
2023/05/03 06:31:18;;;;;;;3.70;3.40;;;18.70;59.00;;;;;;4941177;28;20712;-67
2023/05/03 06:33:46;;;;;;;3.40;3.10;;;18.70;59.00;;;;;;4965424;28;20217;-68
2023/05/03 06:36:11;;;;;;;3.42;3.13;;;18.70;59.00;;;;;;4989062;28;20189;-67
2023/05/03 06:38:37;;;;;;;3.70;3.40;;;18.70;59.00;;;;;;4940932;28;20200;-67
2023/05/03 06:41:03;;;;;;;3.50;3.20;;;18.70;59.00;;;;;;4972988;28;20200;-67
2023/05/03 06:43:29;;;;;;;3.45;3.22;;;18.70;59.00;;;;;;4956943;28;20228;-68
2023/05/03 06:46:00;;;;;;;3.60;3.30;;;18.70;59.00;;;;;;4956420;28;20740;-67
2023/05/03 06:48:26;;;;;;;3.28;3.08;;;18.70;59.00;;;;;;4940986;28;20197;-67
2023/05/03 06:50:53;;;;;;;3.47;3.17;;;18.70;59.00;;;;;;4956993;28;20190;-67
2023/05/03 06:53:19;;;;;;;4.32;3.50;;;18.80;59.00;;;;;;4957097;28;20189;-67
2023/05/03 06:55:45;;;;;;;3.95;3.55;;;18.70;59.00;;;;;;4956251;28;20284;-67
2023/05/03 06:58:11;;;;;;;4.13;3.72;;;18.70;58.90;;;;;;4956997;28;20201;-67
2023/05/03 07:00:40;;;;;;;3.88;3.58;;;18.70;59.00;;;;;;4956452;28;20201;-67
2023/05/03 07:03:06;;;;;;;4.25;3.95;;;18.70;59.00;;;;;;4956562;28;20275;-67
2023/05/03 07:05:31;;;;;;;4.30;4.00;;;18.70;59.00;;;;;;4940091;28;20268;-66
2023/05/03 07:07:57;;;;;;;4.00;3.70;;;18.70;59.00;;;;;;4973826;28;20668;-67
2023/05/03 07:10:24;;;;;;;4.40;4.00;;;18.70;59.00;;;;;;4940327;28;20201;-67
2023/05/03 07:12:50;;;;;;;4.05;3.75;;;18.80;59.00;;;;;;4956256;28;20680;-67
2023/05/03 07:15:16;;;;;;;3.72;3.42;;;18.80;59.00;;;;;;4973488;28;20213;-67
2023/05/03 07:17:41;;;;;;;4.10;3.80;;;18.70;59.00;;;;;;4955923;28;20194;-67
2023/05/03 07:20:08;;;;;;;3.88;3.58;;;18.80;59.00;;;;;;4966528;28;20289;-68
2023/05/03 07:22:33;;;;;;;3.97;3.67;;;18.80;59.00;;;;;;4954658;28;20216;-68
2023/05/03 07:24:59;;;;;;;4.15;3.80;;;18.80;59.00;;;;;;4940158;28;20603;-67
2023/05/03 07:27:25;;;;;;;3.80;3.50;;;18.70;59.00;;;;;;4956147;28;20186;-67
2023/05/03 07:29:51;;;;;;;4.28;3.88;;;18.80;59.00;;;;;;4956603;28;20182;-67
2023/05/03 07:32:18;;;;;;;4.63;4.22;;;18.80;59.00;;;;;;4973483;28;20181;-67
2023/05/03 07:34:44;;;;;;;4.93;4.53;;;18.80;59.00;;;;;;4956111;28;20221;-67
2023/05/03 07:37:10;;;;;;;4.22;3.92;;;18.80;59.00;;;;;;4956297;28;20186;-67
2023/05/03 07:39:35;;;;;;;4.93;4.53;;;18.80;59.00;;;;;;4972156;28;20189;-68
2023/05/03 07:42:01;;;;;;;4.43;4.13;;;18.80;59.00;;;;;;4973271;28;20219;-68
2023/05/03 07:44:27;;;;;;;4.75;4.38;;;18.80;59.00;;;;;;4940014;28;20205;-68
2023/05/03 07:46:53;;;;;;;4.75;4.35;;;18.80;59.00;;;;;;4972270;28;20194;-67
2023/05/03 07:49:18;;;;;;;5.43;4.93;;;18.90;59.00;;;;;;4955847;28;20201;-67
2023/05/03 07:51:44;;;;;;;5.15;4.75;;;18.90;59.00;;;;;;4955844;28;20199;-67
2023/05/03 07:54:10;;;;;;;5.57;5.03;;;18.90;59.00;;;;;;4955733;28;20217;-67
2023/05/03 07:56:36;;;;;;;5.78;5.18;;;18.90;58.90;;;;;;4988105;28;20208;-67
2023/05/03 07:59:02;;;;;;;5.45;5.05;;;18.90;59.00;;;;;;4955708;28;20248;-67
2023/05/03 08:01:28;;;;;;;4.95;4.55;;;18.90;59.00;;;;;;4972291;28;20186;-68
2023/05/03 08:03:53;;;;;;;4.95;4.55;;;18.90;59.00;;;;;;4956009;28;20198;-67
2023/05/03 08:06:19;;;;;;;5.53;5.03;;;18.90;58.90;;;;;;4955680;28;20210;-68
2023/05/03 08:08:45;;;;;;;4.93;4.53;;;18.90;59.00;;;;;;4956047;28;20556;-67
2023/05/03 08:11:11;;;;;;;5.32;4.82;;;18.90;58.90;;;;;;4973078;28;20185;-67
2023/05/03 08:13:37;;;;;;;5.65;4.70;;;19.00;59.00;;;;;;4955666;28;20217;-67
2023/05/03 08:16:05;;;;;;;5.30;4.85;;;19.00;59.00;;;;;;4971483;28;20193;-67
2023/05/03 08:18:30;;;;;;;5.00;4.60;;;19.00;58.90;;;;;;4963697;28;20659;-67
2023/05/03 08:20:57;;;;;;;5.45;4.95;;;19.00;58.90;;;;;;4955824;28;20201;-68
2023/05/03 08:23:24;;;;;;;4.93;4.53;;;19.00;58.90;;;;;;4939612;28;20572;-67
2023/05/03 08:25:51;;;;;;;5.07;4.68;;;19.00;58.90;;;;;;4955529;28;20377;-67
2023/05/03 08:28:17;;;;;;;5.40;4.90;;;19.00;58.90;;;;;;4955915;28;20708;-67
2023/05/03 08:30:43;;;;;;;5.28;4.80;;;19.00;58.90;;;;;;4974922;28;20204;-67
2023/05/03 08:33:09;;;;;;;5.45;4.95;;;19.00;58.90;;;;;;4959152;28;20186;-68
2023/05/03 08:35:35;;;;;;;4.95;4.55;;;19.00;58.90;;;;;;4958865;28;20265;-67
2023/05/03 08:38:01;;;;;;;5.10;4.70;;;19.00;58.90;;;;;;4959434;28;20209;-67
2023/05/03 08:40:27;;;;;;;5.15;4.75;;;19.00;58.90;;;;;;4976421;28;20274;-67
2023/05/03 08:42:56;;;;;;;4.97;4.57;;;19.00;58.90;;;;;;4976407;28;20186;-66
2023/05/03 08:45:22;;;;;;;5.30;4.90;;;19.00;58.90;;;;;;4958712;28;20220;-67
2023/05/03 08:47:54;;;;;;;4.80;4.40;;;19.00;58.90;;;;;;4942960;28;20190;-67
2023/05/03 08:50:20;;;;;;;5.25;4.85;;;19.00;58.90;;;;;;4959165;28;20217;-68
2023/05/03 08:52:46;;;;;;;4.97;4.57;;;19.10;59.00;;;;;;4943093;28;20192;-67
2023/05/03 08:55:12;;;;;;;5.13;4.72;;;19.10;58.90;;;;;;4958712;28;20252;-67
2023/05/03 08:57:39;;;;;;;4.70;4.30;;;19.10;58.90;;;;;;4959005;28;20177;-68
2023/05/03 09:00:09;;;;;;;5.10;4.70;;;19.10;58.90;;;;;;4969737;28;20186;-68
2023/05/03 09:02:38;;;;;;;4.32;4.03;;;19.10;58.80;;;;;;4972702;28;20276;-67
2023/05/03 09:05:25;;;;;;;4.38;4.07;;;19.20;58.90;;;;;;4958291;28;20209;-67
2023/05/03 09:08:09;;;;;;;4.97;4.57;;;19.10;58.80;;;;;;4945915;28;20204;-67
2023/05/03 09:10:41;;;;;;;4.78;4.40;;;19.20;58.80;;;;;;4958638;28;20181;-68
2023/05/03 09:13:07;;;;;;;4.70;4.35;;;19.20;58.90;;;;;;4958526;28;20184;-67
2023/05/03 09:15:34;;;;;;;5.35;4.88;;;19.20;58.90;;;;;;4958538;28;20201;-68
2023/05/03 09:18:14;;;;;;;5.20;4.80;;;19.20;58.90;;;;;;4958812;28;20252;-67
2023/05/03 09:20:49;;;;;;;4.25;3.95;;;19.20;59.00;;;;;;4958304;28;20189;-67
2023/05/03 09:23:18;;;;;;;4.97;4.47;;;19.20;59.00;;;;;;4958306;28;20186;-67
2023/05/03 09:25:47;;;;;;;4.68;4.28;;;19.20;59.00;;;;;;4959063;28;20669;-67
2023/05/03 09:28:16;;;;;;;4.72;4.32;;;19.20;59.00;;;;;;4958240;28;20178;-68
2023/05/03 09:30:43;;;;;;;4.60;4.20;;;19.20;59.00;;;;;;4958203;28;20174;-68
2023/05/03 09:33:20;;;;;;;4.40;4.10;;;19.20;59.10;;;;;;4975284;28;20192;-67
2023/05/03 09:36:04;;;;;;;5.10;4.60;;;19.20;59.10;;;;;;4957917;28;20205;-67
2023/05/03 09:38:33;;;;;;;4.93;4.53;;;19.20;59.10;;;;;;4958109;28;20192;-67
2023/05/03 09:41:04;;;;;;;4.82;4.43;;;19.20;59.10;;;;;;4934452;28;20185;-67
2023/05/03 09:43:31;;;;;;;4.32;4.00;;;19.20;59.00;;;;;;4961390;28;20188;-67
2023/05/03 09:46:11;;;;;;;4.57;4.18;;;19.20;59.00;;;;;;4975140;28;20268;-67
2023/05/03 09:48:39;;;;;;;4.35;4.05;;;19.20;59.00;;;;;;4975380;28;20197;-67
2023/05/03 09:51:06;;;;;;;4.57;4.18;;;19.10;59.00;;;;;;4957905;28;20233;-67
2023/05/03 09:53:34;;;;;;;5.18;3.55;;;19.20;59.00;;;;;;4973761;28;20177;-67
2023/05/03 09:56:07;;;;;;;4.47;4.18;;;19.20;59.00;;;;;;4970517;28;20186;-67
2023/05/03 09:58:35;;;;;;;4.30;4.00;;;19.20;59.10;;;;;;4970564;28;20194;-67
2023/05/03 10:01:01;;;;;;;4.50;4.20;;;19.20;59.10;;;;;;4974004;28;20193;-67
2023/05/03 10:03:49;;;;;;;4.57;4.18;;;19.20;59.10;;;;;;4957679;28;20213;-67
2023/05/03 10:06:22;;;;;;;4.93;4.55;;;19.20;59.10;;;;;;4935943;28;20224;-67
2023/05/03 10:09:19;;;;;;;4.60;4.20;;;19.20;59.10;;;;;;4941632;28;20197;-67
2023/05/03 10:12:00;;;;;;;3.88;3.58;;;19.20;59.10;;;;;;4952160;28;20208;-67
2023/05/03 10:14:26;;;;;;;4.32;4.00;;;19.20;59.00;;;;;;4973776;28;20670;-67
2023/05/03 10:17:00;;;;;;;4.15;3.85;;;19.20;59.10;;;;;;4971203;28;20277;-67
2023/05/03 10:19:45;;;;;;;4.82;4.43;;;19.20;59.00;;;;;;4938488;29;20198;-67
2023/05/03 10:22:11;;;;;;;4.97;4.47;;;19.20;59.00;;;;;;4938336;29;20197;-67
2023/05/03 10:25:00;;;;;;;4.07;3.72;;;19.20;59.00;;;;;;4922391;29;20218;-66
2023/05/03 10:27:44;;;;;;;4.47;4.07;;;19.20;59.00;;;;;;4938424;29;20536;-67
2023/05/03 10:30:25;;;;;;;4.07;3.70;;;19.20;59.00;;;;;;4938207;29;20646;-68
2023/05/03 10:32:51;;;;;;;4.68;4.28;;;19.20;59.00;;;;;;4953131;29;20194;-68
2023/05/03 10:35:18;;;;;;;4.00;3.70;;;19.20;59.00;;;;;;4951613;28;20224;-67
2023/05/03 10:37:47;;;;;;;4.50;4.07;;;19.20;59.00;;;;;;4957395;28;20193;-67
2023/05/03 10:40:17;;;;;;;4.05;3.70;;;19.20;59.00;;;;;;4957420;28;20228;-67
2023/05/03 10:42:53;;;;;;;3.97;3.67;;;19.30;59.10;;;;;;4941278;28;20197;-68
2023/05/03 10:45:27;;;;;;;4.30;4.00;;;19.20;59.00;;;;;;4957076;28;20217;-67
2023/05/03 10:48:11;;;;;;;4.15;3.85;;;19.20;59.00;;;;;;4957081;28;20204;-67
2023/05/03 10:50:40;;;;;;;4.32;4.03;;;19.20;59.00;;;;;;4947052;28;20182;-68
2023/05/03 10:53:07;;;;;;;3.85;3.55;;;19.30;59.00;;;;;;4956560;28;20235;-67
2023/05/03 10:55:33;;;;;;;4.03;3.72;;;19.30;59.00;;;;;;4956503;28;20217;-68
2023/05/03 10:58:02;;;;;;;3.85;3.55;;;19.30;59.00;;;;;;4956741;28;20197;-67
2023/05/03 11:00:42;;;;;;;4.18;3.88;;;19.30;59.00;;;;;;4956650;28;20186;-67
2023/05/03 11:03:17;;;;;;;3.28;3.08;;;19.30;59.00;;;;;;4934043;28;20189;-67
2023/05/03 11:05:46;;;;;;;3.70;3.40;;;19.30;59.00;;;;;;4972304;28;20607;-67
2023/05/03 11:08:13;;;;;;;4.15;3.60;;;19.30;58.90;;;;;;4956603;28;20181;-67
2023/05/03 11:10:40;;;;;;;3.60;3.40;;;19.30;58.90;;;;;;4956772;28;20201;-67
2023/05/03 11:13:06;;;;;;;4.13;3.38;;;19.30;58.80;;;;;;4973734;28;20185;-67
2023/05/03 11:15:32;;;;;;;3.53;3.22;;;19.30;59.00;;;;;;4956290;28;20221;-67
2023/05/03 11:17:58;;;;;;;3.70;3.40;;;19.30;58.90;;;;;;4988515;28;20208;-67
2023/05/03 11:20:25;;;;;;;3.67;3.38;;;19.30;58.90;;;;;;4989010;28;20194;-67
2023/05/03 11:22:51;;;;;;;3.38;3.08;;;19.30;58.90;;;;;;4972706;28;20182;-68
2023/05/03 11:25:18;;;;;;;3.65;3.35;;;19.30;58.90;;;;;;4951061;29;20288;-67
2023/05/03 11:27:46;;;;;;;3.35;3.15;;;19.30;58.80;;;;;;4946244;28;20205;-67
2023/05/03 11:30:12;;;;;;;4.07;3.67;;;19.30;58.70;;;;;;4940416;28;20185;-67
2023/05/03 11:32:40;;;;;;;3.75;3.42;;;19.30;58.80;;;;;;4940463;28;20221;-67
2023/05/03 11:35:07;;;;;;;3.80;3.50;;;19.30;58.80;;;;;;4955855;28;20292;-67
2023/05/03 11:37:33;;;;;;;3.75;3.45;;;19.20;58.70;;;;;;4956599;28;20193;-66
2023/05/03 11:40:00;;;;;;;3.83;3.53;;;19.30;58.60;;;;;;4940254;28;20240;-66
2023/05/03 11:42:27;;;;;;;3.72;3.42;;;19.30;58.70;;;;;;4973358;28;20224;-67
2023/05/03 11:44:53;;;;;;;3.50;3.20;;;19.30;58.70;;;;;;4973120;28;20213;-68
2023/05/03 11:47:22;;;;;;;3.40;3.10;;;19.30;58.70;;;;;;4956305;28;20185;-68
2023/05/03 11:49:56;;;;;;;3.22;3.00;;;19.30;58.70;;;;;;4956112;28;20288;-68
2023/05/03 11:52:24;;;;;;;2.92;2.70;;;19.30;58.60;;;;;;4988268;28;20199;-67
2023/05/03 11:54:50;;;;;;;3.42;3.00;;;19.30;58.60;;;;;;4947942;28;20225;-67
2023/05/03 11:57:18;;;;;;;3.47;3.00;;;19.30;58.60;;;;;;4967342;28;20186;-68
2023/05/03 11:59:44;;;;;;;3.00;2.80;;;19.30;58.60;;;;;;4953199;28;20272;-67
2023/05/03 12:02:14;;;;;;;3.28;3.08;;;19.30;58.50;;;;;;4956301;28;20193;-67
2023/05/03 12:04:42;;;;;;;3.28;2.95;;;19.30;58.70;;;;;;4974054;28;20228;-67
2023/05/03 12:07:12;;;;;;;3.20;3.00;;;19.30;58.60;;;;;;4992085;28;20178;-67
2023/05/03 12:09:39;;;;;;;3.22;2.97;;;19.30;58.70;;;;;;4959727;28;20197;-67
2023/05/03 12:12:05;;;;;;;3.80;3.50;;;19.30;58.60;;;;;;4944219;28;20220;-67
2023/05/03 12:14:58;;;;;;;3.58;3.28;;;19.30;58.70;;;;;;4959544;28;20220;-67
2023/05/03 12:17:38;;;;;;;4.63;3.53;;;19.30;58.60;;;;;;4959573;28;20284;-68
2023/05/03 12:20:19;;;;;;;3.00;2.70;;;19.30;59.20;;;;;;4959585;28;20208;-68
2023/05/03 12:22:49;;;;;;;3.65;3.35;;;19.30;58.50;;;;;;4972830;28;20205;-67
2023/05/03 12:25:15;;;;;;;3.30;3.10;;;19.30;58.50;;;;;;4940151;29;20218;-67
2023/05/03 12:27:41;;;;;;;3.30;3.10;;;19.30;58.50;;;;;;4964404;28;20196;-68
2023/05/03 12:30:10;;;;;;;3.53;3.22;;;19.30;58.50;;;;;;4959823;28;20344;-67
2023/05/03 12:32:37;;;;;;;3.35;2.70;;;19.30;58.60;;;;;;4959490;28;20196;-68
2023/05/03 12:35:05;;;;;;;3.38;3.08;;;19.30;58.50;;;;;;4991799;28;20206;-66
2023/05/03 12:37:31;;;;;;;2.92;2.72;;;19.30;58.70;;;;;;4943495;28;20198;-67
2023/05/03 12:39:56;;;;;;;2.72;2.53;;;19.30;58.60;;;;;;4976512;28;20189;-67
2023/05/03 12:42:22;;;;;;;3.13;2.92;;;19.30;58.70;;;;;;4959208;28;20194;-67
2023/05/03 12:44:48;;;;;;;3.10;2.90;;;19.30;58.60;;;;;;4958807;28;20214;-67
2023/05/03 12:47:14;;;;;;;3.20;3.00;;;19.40;58.70;;;;;;4959207;28;20181;-67
2023/05/03 12:49:40;;;;;;;3.10;2.90;;;19.30;58.70;;;;;;4959642;28;20181;-67
2023/05/03 12:52:06;;;;;;;2.95;2.75;;;19.30;58.30;;;;;;4959197;28;20181;-67
2023/05/03 12:54:34;;;;;;;3.42;3.13;;;19.30;58.50;;;;;;4976017;28;20213;-66